Time;durP1;ratioP1;P1;durP2;ratioP2;P2;SDS_P1;SDS_P2;PMS_P1;PMS_P2;Temp;Humidity;BMP_temperature;BMP_pressure;BME280_temperature;BME280_humidity;BME280_pressure;Samples;Min_cycle;Max_cycle;Signal;HPM_P1;HPM_P2
2024/01/22 00:01:41;;;;;;;34.27;16.60;;;-3.90;99.90;;;;;;5001853;28;20530;-58
2024/01/22 00:04:07;;;;;;;30.83;15.97;;;-3.90;99.90;;;;;;5005683;28;20425;-61
2024/01/22 00:06:36;;;;;;;31.40;16.67;;;-3.90;99.90;;;;;;5006359;28;20429;-57
2024/01/22 00:09:02;;;;;;;31.07;15.67;;;-3.90;99.90;;;;;;5003702;28;20449;-56
2024/01/22 00:11:28;;;;;;;31.43;16.37;;;-4.00;99.90;;;;;;5000149;28;20579;-56
2024/01/22 00:13:54;;;;;;;34.27;15.80;;;-4.00;99.90;;;;;;5002956;28;20450;-62
2024/01/22 00:16:20;;;;;;;33.73;15.17;;;-4.00;99.90;;;;;;5007449;28;20436;-61
2024/01/22 00:18:46;;;;;;;30.73;16.20;;;-4.00;99.90;;;;;;5005116;28;20461;-59
2024/01/22 00:21:12;;;;;;;31.23;15.70;;;-4.10;99.90;;;;;;5007127;28;20798;-56
2024/01/22 00:23:37;;;;;;;39.27;15.93;;;-4.10;99.90;;;;;;5005139;28;20432;-61
2024/01/22 00:26:03;;;;;;;31.97;16.57;;;-4.10;99.90;;;;;;4997827;28;20592;-59
2024/01/22 00:28:29;;;;;;;31.03;15.60;;;-4.10;99.90;;;;;;5003304;28;20204;-56
2024/01/22 00:30:54;;;;;;;32.90;15.70;;;-4.10;99.90;;;;;;5002535;28;20296;-56
2024/01/22 00:33:20;;;;;;;27.63;15.17;;;-4.10;99.90;;;;;;5006121;28;20190;-59
2024/01/22 00:35:46;;;;;;;36.07;16.40;;;-4.00;99.90;;;;;;5001045;28;20212;-61
2024/01/22 00:38:11;;;;;;;32.67;14.90;;;-4.10;99.90;;;;;;5008643;28;20207;-60
2024/01/22 00:40:37;;;;;;;30.60;14.93;;;-4.10;99.90;;;;;;5006132;28;20179;-57
2024/01/22 00:43:02;;;;;;;29.23;15.27;;;-4.10;99.90;;;;;;5005157;28;21106;-58
2024/01/22 00:45:28;;;;;;;23.53;14.53;;;-4.10;99.90;;;;;;5005566;28;20190;-60
2024/01/22 00:47:54;;;;;;;29.73;15.57;;;-4.10;99.90;;;;;;5005123;28;20228;-58
2024/01/22 00:50:19;;;;;;;32.00;15.77;;;-4.10;99.90;;;;;;5004863;28;20188;-59
2024/01/22 00:52:45;;;;;;;35.00;15.90;;;-4.10;99.90;;;;;;5004705;28;20217;-58
2024/01/22 00:55:11;;;;;;;25.43;14.90;;;-4.20;99.90;;;;;;5001819;28;20219;-58
2024/01/22 00:57:38;;;;;;;31.93;14.20;;;-4.20;99.90;;;;;;5006327;28;20213;-59
2024/01/22 01:00:05;;;;;;;30.50;16.00;;;-4.20;99.90;;;;;;5002398;28;20186;-59
2024/01/22 01:02:30;;;;;;;26.93;15.17;;;-4.20;99.90;;;;;;5005587;28;21119;-58
2024/01/22 01:04:56;;;;;;;33.10;14.77;;;-4.20;99.90;;;;;;5007840;28;20425;-57
2024/01/22 01:07:21;;;;;;;42.80;15.70;;;-4.20;99.90;;;;;;5002811;28;20182;-57
2024/01/22 01:09:47;;;;;;;27.63;15.03;;;-4.20;99.90;;;;;;5003147;28;20228;-58
2024/01/22 01:12:13;;;;;;;34.37;14.90;;;-4.20;99.90;;;;;;5005589;28;20276;-57
2024/01/22 01:14:38;;;;;;;27.93;14.73;;;-4.20;99.90;;;;;;5006918;28;20186;-57
2024/01/22 01:17:04;;;;;;;25.70;14.40;;;-4.20;99.90;;;;;;5007234;28;20187;-60
2024/01/22 01:19:29;;;;;;;28.10;14.60;;;-4.30;99.90;;;;;;5005197;28;20259;-54
2024/01/22 01:21:55;;;;;;;30.80;14.20;;;-4.20;99.90;;;;;;5005203;28;20182;-61
2024/01/22 01:24:20;;;;;;;28.30;14.40;;;-4.30;99.90;;;;;;5005229;28;20190;-57
2024/01/22 01:26:47;;;;;;;26.40;14.30;;;-4.30;99.90;;;;;;5005138;28;20224;-58
2024/01/22 01:29:13;;;;;;;31.17;16.10;;;-4.30;99.90;;;;;;4999958;28;20219;-55
2024/01/22 01:31:38;;;;;;;30.57;16.50;;;-4.30;99.90;;;;;;5000729;28;20543;-62
2024/01/22 01:34:04;;;;;;;30.77;16.20;;;-4.30;99.90;;;;;;5000161;28;20321;-59
2024/01/22 01:36:30;;;;;;;36.77;16.80;;;-4.40;99.90;;;;;;5003822;28;20434;-56
2024/01/22 01:38:55;;;;;;;32.00;15.70;;;-4.30;99.90;;;;;;5003469;28;20202;-58
2024/01/22 01:41:21;;;;;;;30.47;16.73;;;-4.30;99.90;;;;;;5004750;28;20557;-56
2024/01/22 01:43:46;;;;;;;33.97;16.60;;;-4.30;99.90;;;;;;5004596;28;20195;-58
2024/01/22 01:46:12;;;;;;;34.70;15.50;;;-4.30;99.90;;;;;;5013972;28;20267;-61
2024/01/22 01:48:38;;;;;;;32.80;15.90;;;-4.30;99.90;;;;;;5007427;28;20745;-56
2024/01/22 01:51:04;;;;;;;40.57;17.70;;;-4.30;99.90;;;;;;5003756;28;20687;-57
2024/01/22 01:53:30;;;;;;;34.13;15.40;;;-4.30;99.90;;;;;;5003301;28;20441;-54
2024/01/22 01:55:57;;;;;;;35.30;17.00;;;-4.30;99.90;;;;;;4996291;28;20428;-56
2024/01/22 01:58:23;;;;;;;32.00;16.73;;;-4.30;99.90;;;;;;5001245;28;20487;-57
2024/01/22 02:00:51;;;;;;;35.70;18.03;;;-4.30;99.90;;;;;;5002840;28;20901;-58
2024/01/22 02:03:16;;;;;;;29.47;16.63;;;-4.30;99.90;;;;;;4999594;28;20517;-61
2024/01/22 02:05:42;;;;;;;29.67;15.57;;;-4.40;99.90;;;;;;5000105;28;20523;-57
2024/01/22 02:08:08;;;;;;;35.77;15.43;;;-4.30;99.90;;;;;;5001193;28;20202;-53
2024/01/22 02:10:33;;;;;;;30.30;15.73;;;-4.30;99.90;;;;;;5003319;28;20205;-56
2024/01/22 02:13:01;;;;;;;32.50;16.40;;;-4.30;99.90;;;;;;5006658;28;20315;-60
2024/01/22 02:15:27;;;;;;;33.73;16.00;;;-4.30;99.90;;;;;;5001520;28;20178;-59
2024/01/22 02:17:53;;;;;;;31.30;14.50;;;-4.30;99.90;;;;;;5001063;28;20470;-57
2024/01/22 02:20:18;;;;;;;35.07;17.10;;;-4.40;99.90;;;;;;5005249;28;20186;-57
2024/01/22 02:22:44;;;;;;;27.47;14.93;;;-4.40;99.90;;;;;;5004566;28;20417;-57
2024/01/22 02:25:10;;;;;;;37.30;16.60;;;-4.40;99.90;;;;;;5001232;28;20602;-58
2024/01/22 02:27:35;;;;;;;33.63;17.13;;;-4.40;99.90;;;;;;5000772;28;20194;-57
2024/01/22 02:30:01;;;;;;;35.10;16.83;;;-4.50;99.90;;;;;;5000551;28;20186;-56
2024/01/22 02:32:26;;;;;;;36.80;17.70;;;-4.50;99.90;;;;;;4998595;28;20217;-56
2024/01/22 02:34:52;;;;;;;36.07;16.37;;;-4.50;99.90;;;;;;5004418;28;20198;-60
2024/01/22 02:37:18;;;;;;;38.10;16.40;;;-4.50;99.90;;;;;;5003414;28;20183;-56
2024/01/22 02:39:43;;;;;;;33.50;17.13;;;-4.50;99.90;;;;;;5001041;28;20337;-60
2024/01/22 02:42:09;;;;;;;31.03;17.00;;;-4.50;99.90;;;;;;5001639;28;20178;-56
2024/01/22 02:44:35;;;;;;;36.63;15.90;;;-4.50;99.90;;;;;;5002750;28;20197;-55
2024/01/22 02:47:02;;;;;;;28.70;16.13;;;-4.40;99.90;;;;;;5004351;28;20265;-60
2024/01/22 02:49:28;;;;;;;35.23;16.50;;;-4.40;99.90;;;;;;5001475;28;20463;-61
2024/01/22 02:51:54;;;;;;;28.43;14.53;;;-4.40;99.90;;;;;;5006549;28;20469;-61
2024/01/22 02:54:19;;;;;;;30.40;16.60;;;-4.40;99.90;;;;;;5001622;28;20444;-57
2024/01/22 02:56:45;;;;;;;28.60;14.83;;;-4.40;99.90;;;;;;5003639;28;20486;-56
2024/01/22 02:59:11;;;;;;;34.57;15.80;;;-4.40;99.90;;;;;;5001808;28;20797;-60
2024/01/22 03:01:37;;;;;;;31.03;13.80;;;-4.30;99.90;;;;;;4999172;28;20183;-55
2024/01/22 03:04:03;;;;;;;32.27;15.60;;;-4.30;99.90;;;;;;4998140;28;20505;-56
2024/01/22 03:06:29;;;;;;;29.30;14.10;;;-4.30;99.90;;;;;;5004659;28;20437;-57
2024/01/22 03:08:54;;;;;;;28.37;13.37;;;-4.30;99.90;;;;;;5002002;28;20546;-59
2024/01/22 03:11:21;;;;;;;30.63;14.40;;;-4.30;99.90;;;;;;4999047;28;20205;-57
2024/01/22 03:13:47;;;;;;;27.97;13.63;;;-4.20;99.90;;;;;;4998585;28;20184;-58
2024/01/22 03:16:12;;;;;;;28.90;15.07;;;-4.20;99.90;;;;;;5004809;28;20430;-59
2024/01/22 03:18:38;;;;;;;28.90;13.43;;;-4.20;99.90;;;;;;5024263;23;20300;-60
2024/01/22 03:21:04;;;;;;;27.13;13.20;;;-4.10;99.90;;;;;;4997150;28;20192;-60
2024/01/22 03:23:30;;;;;;;27.17;13.40;;;-4.10;99.90;;;;;;5003471;28;20173;-59
2024/01/22 03:25:56;;;;;;;28.70;13.80;;;-4.10;99.90;;;;;;4998946;28;20438;-60
2024/01/22 03:28:22;;;;;;;39.20;14.40;;;-4.10;99.90;;;;;;5005516;28;20460;-60
2024/01/22 03:30:47;;;;;;;26.20;13.10;;;-4.10;99.90;;;;;;4985719;28;20202;-59
2024/01/22 03:33:13;;;;;;;25.00;13.00;;;-4.10;99.90;;;;;;4988046;28;20436;-60
2024/01/22 03:35:39;;;;;;;30.70;13.80;;;-4.10;99.90;;;;;;4989133;28;20180;-59
2024/01/22 03:38:04;;;;;;;27.97;13.70;;;-4.10;99.90;;;;;;4986161;28;20176;-61
2024/01/22 03:40:30;;;;;;;30.03;12.37;;;-4.10;99.90;;;;;;4989885;28;20221;-60
2024/01/22 03:42:56;;;;;;;27.93;13.47;;;-4.10;99.90;;;;;;4978620;28;20804;-60
2024/01/22 03:45:21;;;;;;;28.97;13.70;;;-4.10;99.90;;;;;;4985786;28;20190;-61
2024/01/22 03:47:47;;;;;;;25.17;13.07;;;-4.10;99.90;;;;;;4988076;28;20206;-60
2024/01/22 03:50:12;;;;;;;25.13;12.77;;;-4.10;99.90;;;;;;4988100;28;20200;-60
2024/01/22 03:52:38;;;;;;;25.90;12.93;;;-4.00;99.90;;;;;;4987674;28;20235;-61
2024/01/22 03:55:04;;;;;;;26.97;13.17;;;-4.00;99.90;;;;;;4987867;28;20264;-60
2024/01/22 03:57:29;;;;;;;29.73;13.00;;;-4.00;99.90;;;;;;4987777;28;20222;-60
2024/01/22 03:59:55;;;;;;;25.57;12.73;;;-4.00;99.90;;;;;;4987095;28;20467;-59
2024/01/22 04:02:21;;;;;;;31.60;14.60;;;-4.00;99.90;;;;;;4988946;28;20612;-59
2024/01/22 04:04:46;;;;;;;24.63;13.60;;;-4.00;99.90;;;;;;4988354;28;20189;-61
2024/01/22 04:07:12;;;;;;;27.77;12.33;;;-4.00;99.90;;;;;;4988116;28;20662;-61
2024/01/22 04:09:37;;;;;;;37.67;12.47;;;-4.00;99.90;;;;;;4985259;28;20196;-60
2024/01/22 04:12:06;;;;;;;30.63;14.20;;;-4.00;99.90;;;;;;4987604;28;20304;-60
2024/01/22 04:14:31;;;;;;;27.70;13.87;;;-3.90;99.90;;;;;;4988878;28;20198;-59
2024/01/22 04:16:57;;;;;;;23.20;12.63;;;-3.90;99.90;;;;;;4985487;28;20454;-60
2024/01/22 04:19:23;;;;;;;28.67;13.73;;;-3.90;99.90;;;;;;4982470;28;20220;-61
2024/01/22 04:21:48;;;;;;;27.33;12.70;;;-3.80;99.90;;;;;;4988639;28;20189;-59
2024/01/22 04:24:14;;;;;;;24.50;13.17;;;-3.80;99.90;;;;;;4986487;28;20189;-60
2024/01/22 04:26:40;;;;;;;21.20;11.63;;;-3.80;99.90;;;;;;4986199;28;20189;-59
2024/01/22 04:29:05;;;;;;;26.80;13.10;;;-3.80;99.90;;;;;;4982677;28;20203;-59
2024/01/22 04:31:31;;;;;;;25.40;13.57;;;-3.70;99.90;;;;;;4986102;28;20206;-60
2024/01/22 04:33:56;;;;;;;22.43;11.80;;;-3.70;99.90;;;;;;4985497;28;20178;-60
2024/01/22 04:36:22;;;;;;;28.47;13.40;;;-3.70;99.90;;;;;;4987373;28;20175;-60
2024/01/22 04:38:48;;;;;;;22.40;12.00;;;-3.70;99.90;;;;;;4986748;28;20459;-59
2024/01/22 04:41:13;;;;;;;24.10;13.13;;;-3.70;99.90;;;;;;4988840;28;20217;-59
2024/01/22 04:43:39;;;;;;;19.90;11.70;;;-3.70;99.90;;;;;;4985610;28;20210;-59
2024/01/22 04:46:06;;;;;;;21.07;11.93;;;-3.70;99.90;;;;;;4985900;28;20183;-60
2024/01/22 04:48:31;;;;;;;25.83;11.90;;;-3.60;99.90;;;;;;4988601;28;20529;-59
2024/01/22 04:50:57;;;;;;;26.53;12.23;;;-3.60;99.90;;;;;;4981408;28;20556;-61
2024/01/22 04:53:22;;;;;;;22.37;11.73;;;-3.60;99.90;;;;;;4979917;28;20775;-59
2024/01/22 04:55:48;;;;;;;20.53;11.43;;;-3.50;99.90;;;;;;4984808;28;20187;-59
2024/01/22 04:58:14;;;;;;;22.93;12.03;;;-3.50;99.90;;;;;;4979660;28;20189;-61
2024/01/22 05:00:39;;;;;;;25.00;12.87;;;-3.50;99.90;;;;;;4995063;28;20574;-55
2024/01/22 05:03:05;;;;;;;21.27;12.30;;;-3.50;99.90;;;;;;4979924;28;20186;-56
2024/01/22 05:05:32;;;;;;;24.13;12.17;;;-3.40;99.90;;;;;;4987776;28;20272;-56
2024/01/22 05:07:57;;;;;;;22.90;12.23;;;-3.30;99.90;;;;;;4983155;28;22001;-61
2024/01/22 05:10:23;;;;;;;19.57;11.10;;;-3.30;99.90;;;;;;4977937;28;20493;-61
2024/01/22 05:12:48;;;;;;;23.57;12.77;;;-3.20;99.90;;;;;;4980902;28;20263;-61
2024/01/22 05:15:15;;;;;;;20.80;12.07;;;-3.10;99.90;;;;;;4979635;28;20561;-61
2024/01/22 05:17:41;;;;;;;15.07;9.80;;;-3.00;99.90;;;;;;4980574;28;20185;-62
2024/01/22 05:20:08;;;;;;;18.17;11.83;;;-3.00;99.90;;;;;;4998372;28;21161;-62
2024/01/22 05:22:36;;;;;;;22.53;11.27;;;-2.90;99.90;;;;;;4984200;28;20565;-62
2024/01/22 05:25:03;;;;;;;22.27;10.90;;;-2.80;99.90;;;;;;4981207;28;20440;-61
2024/01/22 05:27:30;;;;;;;17.23;10.40;;;-2.70;99.90;;;;;;4981979;28;20455;-61
2024/01/22 05:29:55;;;;;;;19.53;10.93;;;-2.60;99.90;;;;;;4983060;28;20465;-62
2024/01/22 05:32:21;;;;;;;21.70;10.40;;;-2.60;99.90;;;;;;4978874;28;20480;-61
2024/01/22 05:34:47;;;;;;;25.63;10.53;;;-2.50;99.90;;;;;;4981079;28;20179;-61
2024/01/22 05:37:12;;;;;;;17.53;9.73;;;-2.50;99.90;;;;;;4980927;28;20174;-61
2024/01/22 05:39:38;;;;;;;18.87;11.20;;;-2.40;99.90;;;;;;4977322;28;20199;-62
2024/01/22 05:42:04;;;;;;;18.60;11.37;;;-2.40;99.90;;;;;;4983697;28;20228;-61
2024/01/22 05:44:30;;;;;;;20.60;9.67;;;-2.40;99.90;;;;;;4983187;28;20555;-61
2024/01/22 05:46:56;;;;;;;18.00;10.23;;;-2.40;99.90;;;;;;4981268;28;21154;-61
2024/01/22 05:49:21;;;;;;;24.90;10.13;;;-2.30;99.90;;;;;;4983250;28;20208;-61
2024/01/22 05:51:47;;;;;;;17.50;10.13;;;-2.30;99.90;;;;;;4983516;28;20293;-61
2024/01/22 05:54:13;;;;;;;24.73;11.27;;;-2.20;99.90;;;;;;4983906;28;20217;-61
2024/01/22 05:56:39;;;;;;;22.53;11.00;;;-2.20;99.90;;;;;;4978460;28;20602;-61
2024/01/22 05:59:05;;;;;;;17.93;10.00;;;-2.20;99.90;;;;;;4977881;28;21376;-61
2024/01/22 06:01:30;;;;;;;19.30;10.70;;;-2.10;99.90;;;;;;4985564;28;20183;-62
2024/01/22 06:03:56;;;;;;;16.53;10.20;;;-2.10;99.90;;;;;;4982402;28;20183;-61
2024/01/22 06:06:22;;;;;;;18.70;10.30;;;-2.10;99.90;;;;;;4984199;28;20769;-61
2024/01/22 06:08:48;;;;;;;22.07;10.60;;;-2.10;99.90;;;;;;4982847;28;20660;-61
2024/01/22 06:11:17;;;;;;;15.87;9.80;;;-2.00;99.90;;;;;;4986470;28;20218;-61
2024/01/22 06:13:42;;;;;;;22.97;10.63;;;-2.00;99.90;;;;;;4985309;28;20470;-62
2024/01/22 06:16:09;;;;;;;15.70;9.57;;;-2.00;99.90;;;;;;4986226;28;20446;-61
2024/01/22 06:18:35;;;;;;;17.47;8.93;;;-2.00;99.90;;;;;;4990403;28;20171;-61
2024/01/22 06:21:01;;;;;;;15.80;9.47;;;-1.90;99.90;;;;;;4981091;28;20537;-61
2024/01/22 06:23:27;;;;;;;15.83;9.17;;;-1.90;99.90;;;;;;4984351;28;20529;-62
2024/01/22 06:25:53;;;;;;;19.37;9.93;;;-1.90;99.90;;;;;;4985837;28;20190;-62
2024/01/22 06:28:19;;;;;;;14.27;9.83;;;-1.80;99.90;;;;;;4985292;28;20446;-61
2024/01/22 06:30:44;;;;;;;21.67;10.57;;;-1.80;99.90;;;;;;4985637;28;20729;-61
2024/01/22 06:33:10;;;;;;;16.37;9.73;;;-1.80;99.90;;;;;;4984597;28;20245;-62
2024/01/22 06:35:36;;;;;;;19.27;11.30;;;-1.70;99.90;;;;;;4982855;28;20178;-61
2024/01/22 06:38:02;;;;;;;19.00;11.00;;;-1.70;99.90;;;;;;4982988;28;20191;-61
2024/01/22 06:40:29;;;;;;;22.00;11.33;;;-1.70;99.90;;;;;;5000485;28;20948;-61
2024/01/22 06:42:54;;;;;;;21.67;9.30;;;-1.70;99.90;;;;;;4985650;28;20440;-61
2024/01/22 06:45:20;;;;;;;15.77;9.57;;;-1.70;99.90;;;;;;4986301;28;20541;-61
2024/01/22 06:47:45;;;;;;;18.10;10.47;;;-1.60;99.90;;;;;;4986172;28;20190;-62
2024/01/22 06:50:12;;;;;;;21.40;10.93;;;-1.60;99.90;;;;;;4987772;28;20203;-62
2024/01/22 06:52:37;;;;;;;17.67;10.20;;;-1.60;99.90;;;;;;4986155;28;20273;-61
2024/01/22 06:55:03;;;;;;;25.93;11.63;;;-1.60;99.90;;;;;;5000891;28;20439;-62
2024/01/22 06:57:30;;;;;;;18.10;10.70;;;-1.60;99.90;;;;;;4983435;28;20662;-61
2024/01/22 06:59:56;;;;;;;18.93;11.30;;;-1.60;99.90;;;;;;4985599;28;20973;-61
2024/01/22 07:02:26;;;;;;;24.00;11.20;;;-1.50;99.90;;;;;;4985107;28;20442;-61
2024/01/22 07:04:52;;;;;;;19.50;11.20;;;-1.50;99.90;;;;;;4983680;28;20190;-61
2024/01/22 07:07:18;;;;;;;28.93;11.90;;;-1.50;99.90;;;;;;4986840;28;20441;-61
2024/01/22 07:09:43;;;;;;;24.90;10.90;;;-1.50;99.90;;;;;;5005350;28;20441;-61
2024/01/22 07:12:09;;;;;;;21.17;10.77;;;-1.50;99.90;;;;;;5000841;28;20573;-61
2024/01/22 07:14:35;;;;;;;16.20;10.07;;;-1.40;99.90;;;;;;4988189;28;20175;-61
2024/01/22 07:17:00;;;;;;;19.03;10.03;;;-1.50;99.90;;;;;;4986242;28;20183;-61
2024/01/22 07:19:26;;;;;;;19.17;10.93;;;-1.40;99.90;;;;;;4990038;28;20616;-61
2024/01/22 07:21:51;;;;;;;19.93;10.93;;;-1.40;99.90;;;;;;4988580;28;20233;-61
2024/01/22 07:24:17;;;;;;;19.50;9.20;;;-1.40;99.90;;;;;;4990231;28;20233;-61
2024/01/22 07:26:43;;;;;;;17.40;9.87;;;-1.40;99.90;;;;;;4990022;28;20586;-61
2024/01/22 07:29:09;;;;;;;19.50;10.63;;;-1.40;99.90;;;;;;4990972;28;20221;-62
2024/01/22 07:31:35;;;;;;;21.47;9.93;;;-1.30;99.90;;;;;;4985489;28;20715;-61
2024/01/22 07:34:00;;;;;;;20.40;9.90;;;-1.30;99.90;;;;;;4984141;28;20510;-61
2024/01/22 07:36:26;;;;;;;17.37;8.57;;;-1.20;99.90;;;;;;4988184;28;20552;-61
2024/01/22 07:38:54;;;;;;;15.47;9.37;;;-1.20;99.90;;;;;;5002331;28;20319;-61
2024/01/22 07:41:20;;;;;;;14.30;9.30;;;-1.10;99.90;;;;;;4990405;28;20182;-61
2024/01/22 07:43:46;;;;;;;22.90;9.00;;;-1.10;99.90;;;;;;4989137;28;20517;-61
2024/01/22 07:46:12;;;;;;;21.07;9.53;;;-1.00;99.90;;;;;;4989748;28;20418;-62
2024/01/22 07:48:42;;;;;;;19.90;10.10;;;-1.00;99.90;;;;;;4990799;28;20190;-61
2024/01/22 07:51:07;;;;;;;17.73;9.53;;;-0.90;99.90;;;;;;4988362;28;20429;-61
2024/01/22 07:53:33;;;;;;;15.67;9.23;;;-0.90;99.90;;;;;;4988437;28;20442;-60
2024/01/22 07:55:59;;;;;;;15.23;9.63;;;-0.90;99.90;;;;;;4982215;28;20203;-61
2024/01/22 07:58:24;;;;;;;15.03;8.80;;;-0.90;99.90;;;;;;4986747;28;20206;-61
2024/01/22 08:00:50;;;;;;;20.27;8.93;;;-0.80;99.90;;;;;;4986708;28;20322;-61
2024/01/22 08:03:16;;;;;;;16.30;9.47;;;-0.80;99.90;;;;;;4988404;28;20187;-61
2024/01/22 08:05:41;;;;;;;12.60;8.07;;;-0.70;99.90;;;;;;4986641;28;20196;-61
2024/01/22 08:08:11;;;;;;;16.77;8.50;;;-0.70;99.90;;;;;;4988085;28;20275;-61
2024/01/22 08:10:37;;;;;;;17.93;7.90;;;-0.70;99.90;;;;;;4991140;28;20383;-61
2024/01/22 08:13:03;;;;;;;18.87;9.40;;;-0.70;99.90;;;;;;4987170;28;20477;-61
2024/01/22 08:15:29;;;;;;;16.03;9.37;;;-0.70;99.90;;;;;;4988872;28;20454;-61
2024/01/22 08:17:55;;;;;;;15.93;8.70;;;-0.70;99.90;;;;;;4985419;28;20783;-61
2024/01/22 08:20:21;;;;;;;13.67;8.60;;;-0.60;99.90;;;;;;4987712;28;20227;-61
2024/01/22 08:22:46;;;;;;;15.73;9.60;;;-0.60;99.90;;;;;;4988580;28;20434;-61
2024/01/22 08:25:18;;;;;;;23.83;12.37;;;-0.60;99.90;;;;;;4986748;28;20187;-61
2024/01/22 08:27:45;;;;;;;26.90;15.30;;;-0.50;99.90;;;;;;4988965;28;20184;-61
2024/01/22 08:30:14;;;;;;;29.60;16.10;;;-0.50;99.90;;;;;;4989543;28;21033;-61
2024/01/22 08:32:39;;;;;;;34.90;16.67;;;-0.50;99.90;;;;;;4985816;28;20466;-61
2024/01/22 08:35:05;;;;;;;27.77;15.53;;;-0.40;99.90;;;;;;4988918;28;20485;-61
2024/01/22 08:37:31;;;;;;;32.23;16.70;;;-0.40;99.90;;;;;;4987341;28;20192;-61
2024/01/22 08:39:57;;;;;;;31.80;15.63;;;-0.30;99.90;;;;;;4986035;28;20669;-62
2024/01/22 08:42:24;;;;;;;32.80;14.30;;;-0.30;99.90;;;;;;4986646;28;20215;-62
2024/01/22 08:44:50;;;;;;;27.30;14.17;;;-0.30;99.90;;;;;;4985105;28;20484;-60
2024/01/22 08:47:15;;;;;;;29.03;13.77;;;-0.20;99.90;;;;;;4986675;28;20999;-62
2024/01/22 08:49:41;;;;;;;25.10;14.23;;;-0.20;99.90;;;;;;4985253;28;20215;-61
2024/01/22 08:52:07;;;;;;;29.07;14.70;;;-0.20;99.90;;;;;;4988754;28;20921;-61
2024/01/22 08:54:33;;;;;;;24.00;14.37;;;-0.10;99.90;;;;;;4985018;28;20266;-61
2024/01/22 08:56:59;;;;;;;26.70;13.77;;;-0.10;99.90;;;;;;4979677;28;20429;-61
2024/01/22 08:59:24;;;;;;;26.37;14.57;;;-0.10;99.90;;;;;;4981190;28;20443;-62
2024/01/22 09:01:50;;;;;;;25.20;12.60;;;0.00;99.90;;;;;;4988916;28;20183;-61
2024/01/22 09:04:16;;;;;;;25.70;12.83;;;0.00;99.90;;;;;;4987171;28;20184;-61
2024/01/22 09:06:42;;;;;;;23.30;12.80;;;0.10;99.90;;;;;;4985678;28;20584;-62
2024/01/22 09:09:09;;;;;;;21.43;11.83;;;0.20;99.90;;;;;;4983875;28;20477;-61
2024/01/22 09:11:35;;;;;;;20.90;12.50;;;0.30;99.90;;;;;;4988123;28;20239;-62
2024/01/22 09:14:01;;;;;;;27.40;12.73;;;0.40;99.90;;;;;;4986106;28;20781;-62
2024/01/22 09:16:27;;;;;;;19.80;11.60;;;0.40;99.90;;;;;;4983738;28;20462;-62
2024/01/22 09:18:52;;;;;;;16.40;10.70;;;0.60;99.90;;;;;;4988557;28;20219;-61
2024/01/22 09:21:18;;;;;;;12.97;8.37;;;0.70;99.90;;;;;;4989323;28;20500;-61
2024/01/22 09:23:44;;;;;;;13.27;7.70;;;0.80;99.90;;;;;;4986607;28;20183;-61
2024/01/22 09:26:09;;;;;;;16.27;8.70;;;0.90;99.90;;;;;;4999981;28;20908;-61
2024/01/22 09:28:35;;;;;;;13.27;8.40;;;1.00;99.90;;;;;;4983072;28;20560;-61
2024/01/22 09:31:01;;;;;;;14.27;8.47;;;1.10;99.90;;;;;;5008698;23;20231;-55
2024/01/22 09:33:27;;;;;;;12.50;6.90;;;1.20;99.90;;;;;;4988881;28;20805;-55
2024/01/22 09:35:53;;;;;;;10.30;6.20;;;1.40;99.90;;;;;;4978800;28;21840;-56
2024/01/22 09:38:19;;;;;;;10.17;6.10;;;1.50;99.90;;;;;;4980445;28;20431;-55
2024/01/22 09:40:44;;;;;;;15.70;6.93;;;1.60;99.90;;;;;;4989821;28;20202;-56
2024/01/22 09:43:10;;;;;;;11.47;6.63;;;1.70;98.60;;;;;;5003840;28;20500;-55
2024/01/22 09:45:36;;;;;;;7.47;5.53;;;1.70;96.30;;;;;;5003883;28;20186;-53
2024/01/22 09:48:03;;;;;;;10.57;6.00;;;1.80;93.40;;;;;;5005722;28;20427;-55
2024/01/22 09:50:29;;;;;;;8.27;5.90;;;1.80;91.60;;;;;;5007193;28;20183;-57
2024/01/22 09:53:00;;;;;;;10.40;5.97;;;1.90;91.50;;;;;;5006353;28;20469;-55
2024/01/22 09:55:26;;;;;;;9.60;5.70;;;1.90;90.70;;;;;;5006441;28;20423;-55
2024/01/22 09:57:53;;;;;;;7.50;4.90;;;2.00;90.00;;;;;;4998573;28;20442;-57
2024/01/22 10:00:25;;;;;;;6.70;4.70;;;2.00;89.80;;;;;;5004327;28;20423;-56
2024/01/22 10:02:55;;;;;;;8.27;5.27;;;2.10;84.00;;;;;;5001080;28;21217;-56
2024/01/22 10:05:21;;;;;;;8.57;5.33;;;2.20;81.10;;;;;;5001911;28;20443;-56
2024/01/22 10:07:48;;;;;;;10.40;6.50;;;2.20;78.30;;;;;;5006119;28;20415;-55
2024/01/22 10:10:15;;;;;;;7.83;5.30;;;2.30;76.90;;;;;;5004584;28;20676;-56
2024/01/22 10:13:04;;;;;;;9.30;5.50;;;2.30;76.80;;;;;;5000347;28;20459;-55
2024/01/22 10:15:33;;;;;;;8.57;5.50;;;2.40;76.90;;;;;;5001257;28;20428;-55
2024/01/22 10:18:10;;;;;;;12.30;6.30;;;2.60;76.90;;;;;;5001314;28;20935;-56
2024/01/22 10:20:35;;;;;;;14.63;6.07;;;2.60;75.50;;;;;;5002860;28;20438;-55
2024/01/22 10:23:01;;;;;;;10.40;6.40;;;2.70;74.50;;;;;;5001825;28;20443;-56
2024/01/22 10:25:27;;;;;;;10.17;6.37;;;2.80;73.10;;;;;;5005337;28;20239;-56
2024/01/22 10:28:12;;;;;;;10.90;5.50;;;2.90;72.80;;;;;;5002716;28;20184;-57
2024/01/22 10:30:39;;;;;;;8.37;5.70;;;3.00;72.40;;;;;;5005557;28;20557;-56
2024/01/22 10:33:09;;;;;;;8.57;5.50;;;3.10;71.60;;;;;;5007444;28;20509;-57
2024/01/22 10:35:35;;;;;;;8.00;5.50;;;3.20;70.80;;;;;;5006429;28;20432;-55
2024/01/22 10:38:12;;;;;;;8.10;5.20;;;3.20;69.80;;;;;;4999201;28;21258;-58
2024/01/22 10:40:39;;;;;;;8.00;4.83;;;3.30;69.80;;;;;;5003294;28;20204;-56
2024/01/22 10:43:20;;;;;;;8.53;5.27;;;3.30;69.70;;;;;;5008418;28;20470;-56
2024/01/22 10:45:50;;;;;;;12.80;5.83;;;3.30;69.40;;;;;;5010815;28;20466;-57
2024/01/22 10:48:20;;;;;;;12.40;8.00;;;3.30;69.10;;;;;;5011008;28;20522;-57
2024/01/22 10:50:45;;;;;;;13.10;7.00;;;3.40;69.00;;;;;;5005895;28;20952;-57
2024/01/22 10:53:11;;;;;;;13.70;7.33;;;3.40;69.00;;;;;;5001346;28;20474;-58
2024/01/22 10:55:38;;;;;;;11.13;6.80;;;3.50;69.30;;;;;;5005171;28;20232;-56
2024/01/22 10:58:17;;;;;;;7.57;5.23;;;3.50;69.40;;;;;;5010545;28;20188;-56
2024/01/22 11:00:44;;;;;;;33.67;16.83;;;3.50;69.40;;;;;;5002168;28;20850;-55
2024/01/22 11:03:14;;;;;;;7.93;5.17;;;3.60;69.60;;;;;;5009609;28;20474;-57
2024/01/22 11:05:46;;;;;;;14.47;8.20;;;3.60;70.00;;;;;;5007319;28;20500;-57
2024/01/22 11:08:15;;;;;;;11.87;7.00;;;3.70;70.50;;;;;;5004063;28;20442;-55
2024/01/22 11:10:43;;;;;;;8.90;6.53;;;3.70;71.00;;;;;;5011328;28;20451;-56
2024/01/22 11:13:09;;;;;;;10.10;7.50;;;3.80;71.60;;;;;;5006825;28;20474;-56
2024/01/22 11:15:35;;;;;;;15.93;9.60;;;3.90;72.20;;;;;;5009336;28;20419;-57
2024/01/22 11:18:01;;;;;;;5.13;4.30;;;4.00;72.60;;;;;;5003104;28;20465;-56
2024/01/22 11:20:27;;;;;;;15.77;4.80;;;4.10;73.20;;;;;;5002181;28;20183;-56
2024/01/22 11:23:04;;;;;;;8.00;5.77;;;4.20;73.70;;;;;;5003608;28;20262;-56
2024/01/22 11:25:32;;;;;;;8.60;5.33;;;4.40;73.70;;;;;;5010402;28;20430;-57
2024/01/22 11:28:02;;;;;;;16.43;5.83;;;4.50;74.60;;;;;;5007558;28;20457;-58
2024/01/22 11:30:46;;;;;;;18.20;5.93;;;4.60;75.10;;;;;;4997439;28;20427;-56
2024/01/22 11:33:21;;;;;;;7.43;5.30;;;4.70;75.60;;;;;;5007443;28;20468;-57
2024/01/22 11:35:46;;;;;;;8.80;5.00;;;4.90;75.90;;;;;;5004938;28;20513;-56
2024/01/22 11:38:12;;;;;;;6.90;4.97;;;4.90;75.90;;;;;;5006776;28;20542;-59
2024/01/22 11:40:55;;;;;;;9.40;5.10;;;5.00;76.80;;;;;;5003545;28;20702;-56
2024/01/22 11:43:22;;;;;;;7.90;5.10;;;5.10;77.90;;;;;;5003081;28;20177;-58
2024/01/22 11:45:56;;;;;;;4.57;4.10;;;5.20;79.40;;;;;;5009464;28;20427;-56
2024/01/22 11:48:23;;;;;;;9.00;4.63;;;5.30;80.70;;;;;;5002151;28;20533;-58
2024/01/22 11:51:04;;;;;;;3.37;2.90;;;5.40;82.60;;;;;;5009700;28;20578;-58
2024/01/22 11:53:30;;;;;;;4.67;2.50;;;5.50;83.50;;;;;;5003093;28;20442;-58
2024/01/22 11:56:02;;;;;;;4.00;2.67;;;5.70;85.30;;;;;;5009104;28;20419;-56
2024/01/22 11:58:29;;;;;;;3.23;2.37;;;5.90;84.20;;;;;;5005519;28;20481;-56
2024/01/22 12:00:55;;;;;;;4.10;2.70;;;6.10;82.20;;;;;;5000826;28;20497;-57
2024/01/22 12:03:25;;;;;;;21.20;3.00;;;6.20;81.20;;;;;;5005327;28;20522;-58
2024/01/22 12:06:00;;;;;;;4.03;2.70;;;6.20;81.40;;;;;;5005103;28;20202;-55
2024/01/22 12:08:26;;;;;;;5.23;2.60;;;6.30;82.70;;;;;;5005965;28;20471;-57
2024/01/22 12:10:56;;;;;;;6.33;3.37;;;6.20;84.40;;;;;;5006410;28;20458;-57
2024/01/22 12:13:23;;;;;;;3.43;2.57;;;6.20;88.70;;;;;;5008805;28;20239;-57
2024/01/22 12:15:56;;;;;;;7.20;3.70;;;6.20;91.00;;;;;;5006676;28;20415;-58
2024/01/22 12:18:25;;;;;;;3.40;2.80;;;6.10;92.70;;;;;;5006795;28;20419;-57
2024/01/22 12:20:51;;;;;;;9.03;3.23;;;6.10;94.10;;;;;;5004393;28;21102;-58
2024/01/22 12:23:30;;;;;;;4.67;2.80;;;6.10;96.50;;;;;;5008555;28;20515;-57
2024/01/22 12:25:57;;;;;;;4.47;2.70;;;6.10;99.20;;;;;;4999348;28;20450;-56
2024/01/22 12:28:23;;;;;;;4.00;3.10;;;6.00;99.90;;;;;;5004923;28;20427;-56
2024/01/22 12:31:01;;;;;;;4.20;2.93;;;6.00;99.90;;;;;;5006813;28;21000;-57
2024/01/22 12:33:28;;;;;;;4.10;2.80;;;6.00;99.90;;;;;;5006061;28;21005;-56